createdAt,value
2018-03-26T00:00:07.368Z,5.90
2018-03-26T00:01:07.379Z,5.70
2018-03-26T00:02:07.390Z,5.70
2018-03-26T00:03:07.391Z,5.10
2018-03-26T00:04:07.396Z,5.20
2018-03-26T00:05:07.403Z,5.60
2018-03-26T00:06:07.415Z,5.40
2018-03-26T00:07:07.416Z,5.80
2018-03-26T00:08:07.421Z,5.60
2018-03-26T00:09:07.435Z,5.50
2018-03-26T00:10:07.440Z,5.60
2018-03-26T00:11:07.450Z,5.20
2018-03-26T00:12:07.454Z,5.30
2018-03-26T00:13:07.461Z,5.40
2018-03-26T00:14:07.463Z,5.80
2018-03-26T00:15:07.476Z,5.40
2018-03-26T00:16:07.481Z,5.70
2018-03-26T00:17:07.488Z,5.40
2018-03-26T00:18:07.494Z,5.60
2018-03-26T00:19:07.504Z,5.40
2018-03-26T00:20:07.503Z,5.70
2018-03-26T00:21:07.514Z,6.00
2018-03-26T00:22:07.516Z,6.20
2018-03-26T00:23:07.523Z,6.10
2018-03-26T00:24:07.536Z,5.90
2018-03-26T00:25:07.539Z,6.00
2018-03-26T00:26:07.541Z,5.80
2018-03-26T00:27:07.614Z,5.60
2018-03-26T00:28:07.552Z,6.10
2018-03-26T00:29:07.566Z,5.80
2018-03-26T00:30:07.609Z,5.70
2018-03-26T00:31:07.579Z,5.90
2018-03-26T00:32:07.579Z,5.90
2018-03-26T00:33:07.585Z,6.40
2018-03-26T00:34:07.599Z,6.60
2018-03-26T00:35:07.600Z,6.40
2018-03-26T00:36:07.604Z,5.70
2018-03-26T00:37:07.613Z,6.60
2018-03-26T00:38:07.617Z,6.50
2018-03-26T00:39:07.628Z,6.10
2018-03-26T00:40:07.629Z,6.50
2018-03-26T00:41:07.637Z,7.10
2018-03-26T00:42:07.642Z,7.10
2018-03-26T00:43:07.648Z,6.90
2018-03-26T00:44:07.660Z,7.00
2018-03-26T00:45:07.668Z,6.70
2018-03-26T00:46:07.669Z,7.20
2018-03-26T00:47:07.680Z,6.90
2018-03-26T00:48:07.685Z,7.60
2018-03-26T00:49:07.692Z,6.90
2018-03-26T00:50:07.693Z,7.50
2018-03-26T00:51:07.700Z,7.20
2018-03-26T00:52:07.712Z,8.20
2018-03-26T00:53:07.718Z,8.00
2018-03-26T00:54:07.726Z,7.90
2018-03-26T00:55:07.727Z,8.30
2018-03-26T00:56:07.733Z,7.90
2018-03-26T00:57:07.746Z,8.50
2018-03-26T00:58:07.752Z,8.40
2018-03-26T00:59:07.759Z,7.60
2018-03-26T01:00:07.760Z,7.70
2018-03-26T01:01:07.772Z,7.70
2018-03-26T01:02:07.778Z,8.90
2018-03-26T01:03:07.782Z,8.30
2018-03-26T01:04:07.784Z,8.00
2018-03-26T01:05:07.798Z,8.60
2018-03-26T01:06:07.798Z,8.70
2018-03-26T01:07:07.805Z,8.20
2018-03-26T01:08:07.819Z,8.60
2018-03-26T01:09:07.823Z,7.90
2018-03-26T01:10:07.824Z,8.10
2018-03-26T01:11:07.836Z,8.40
2018-03-26T01:12:07.841Z,7.90
2018-03-26T01:13:07.844Z,7.90
2018-03-26T01:14:07.858Z,8.10
2018-03-26T01:15:07.862Z,8.70
2018-03-26T01:16:07.867Z,8.00
2018-03-26T01:17:07.873Z,8.10
2018-03-26T01:18:07.876Z,8.60
2018-03-26T01:19:07.887Z,8.20
2018-03-26T01:20:07.893Z,8.60
2018-03-26T01:21:07.893Z,8.50
2018-03-26T01:22:07.905Z,8.30
2018-03-26T01:23:07.913Z,8.40
2018-03-26T01:24:07.920Z,8.10
2018-03-26T01:25:07.920Z,8.00
2018-03-26T01:26:07.925Z,8.10
2018-03-26T01:27:07.938Z,8.70
2018-03-26T01:28:07.943Z,8.10
2018-03-26T01:29:07.951Z,8.10
2018-03-26T01:30:07.955Z,8.10
2018-03-26T01:31:07.960Z,7.50
2018-03-26T01:32:07.965Z,7.60
2018-03-26T01:33:07.975Z,8.20
2018-03-26T01:34:07.981Z,8.00
2018-03-26T01:35:07.990Z,7.60
2018-03-26T01:36:07.990Z,8.00
2018-03-26T01:37:07.998Z,7.50
2018-03-26T01:38:08.009Z,7.80
2018-03-26T01:39:08.010Z,7.40
2018-03-26T01:40:08.018Z,7.60
2018-03-26T01:41:08.034Z,7.90
2018-03-26T01:42:08.030Z,7.90
2018-03-26T01:43:08.043Z,7.70
2018-03-26T01:44:08.051Z,7.50
2018-03-26T01:45:08.050Z,7.60
2018-03-26T01:46:08.056Z,7.90
2018-03-26T01:47:08.073Z,7.90
2018-03-26T01:48:08.070Z,7.40
2018-03-26T01:49:08.075Z,8.10
2018-03-26T01:50:08.082Z,8.70
2018-03-26T01:51:08.093Z,8.80
2018-03-26T01:52:08.094Z,7.40
2018-03-26T01:53:08.101Z,7.20
2018-03-26T01:54:08.108Z,7.30
2018-03-26T01:55:08.119Z,7.80
2018-03-26T01:56:08.120Z,6.90
2018-03-26T01:57:08.127Z,7.30
2018-03-26T01:58:08.138Z,6.40
2018-03-26T01:59:08.147Z,6.50
2018-03-26T02:00:08.151Z,7.00
2018-03-26T02:01:08.157Z,6.60
2018-03-26T02:02:08.158Z,6.90
2018-03-26T02:03:08.165Z,7.70
2018-03-26T02:04:08.171Z,7.50
2018-03-26T02:05:08.185Z,8.50
2018-03-26T02:06:08.189Z,8.30
2018-03-26T02:07:08.197Z,7.90
2018-03-26T02:08:08.201Z,7.60
2018-03-26T02:09:08.207Z,7.60
2018-03-26T02:10:08.209Z,8.40
2018-03-26T02:11:08.221Z,8.10
2018-03-26T02:12:08.220Z,8.20
2018-03-26T02:13:08.232Z,8.60
2018-03-26T02:14:08.234Z,8.20
2018-03-26T02:15:08.246Z,8.40
2018-03-26T02:16:08.251Z,8.20
2018-03-26T02:17:08.260Z,8.40
2018-03-26T02:18:08.258Z,8.40
2018-03-26T02:19:08.267Z,7.80
2018-03-26T02:20:08.274Z,7.90
2018-03-26T02:21:08.278Z,7.50
2018-03-26T02:22:08.291Z,7.60
2018-03-26T02:23:08.297Z,7.10
2018-03-26T02:24:08.297Z,6.80
2018-03-26T02:25:08.303Z,6.90
2018-03-26T02:26:08.317Z,7.60
2018-03-26T02:27:08.323Z,7.90
2018-03-26T02:28:08.322Z,7.90
2018-03-26T02:29:08.334Z,8.10
2018-03-26T02:30:08.340Z,8.50
2018-03-26T02:31:08.350Z,8.60
2018-03-26T02:32:08.361Z,8.00
2018-03-26T02:33:08.355Z,7.80
2018-03-26T02:34:08.362Z,7.60
2018-03-26T02:35:08.375Z,8.10
2018-03-26T02:36:08.379Z,8.40
2018-03-26T02:37:08.386Z,8.80
2018-03-26T02:38:08.387Z,8.50
2018-03-26T02:39:08.394Z,8.20
2018-03-26T02:40:08.404Z,8.10
2018-03-26T02:41:08.408Z,8.20
2018-03-26T02:42:08.418Z,7.60
2018-03-26T02:43:08.418Z,8.10
2018-03-26T02:44:08.424Z,7.80
2018-03-26T02:45:08.439Z,8.10
2018-03-26T02:46:08.448Z,7.60
2018-03-26T02:47:08.450Z,8.20
2018-03-26T02:48:08.449Z,8.50
2018-03-26T02:49:08.462Z,10.20
2018-03-26T02:50:08.469Z,10.50
2018-03-26T02:51:08.469Z,10.10
2018-03-26T02:52:08.480Z,9.40
2018-03-26T02:53:08.480Z,9.70
2018-03-26T02:54:08.487Z,9.30
2018-03-26T02:55:08.515Z,9.90
2018-03-26T02:56:08.509Z,9.00
2018-03-26T02:57:08.513Z,9.00
2018-03-26T02:58:08.516Z,9.40
2018-03-26T02:59:08.524Z,9.30
2018-03-26T03:00:08.528Z,9.80
2018-03-26T03:01:08.532Z,8.80
2018-03-26T03:02:08.544Z,8.80
2018-03-26T03:03:08.543Z,8.80
2018-03-26T03:04:08.555Z,8.70
2018-03-26T03:05:08.561Z,9.20
2018-03-26T03:06:08.562Z,8.70
2018-03-26T03:07:08.574Z,9.00
2018-03-26T03:08:08.579Z,8.70
2018-03-26T03:09:08.587Z,8.60
2018-03-26T03:10:08.591Z,9.30
2018-03-26T03:11:08.594Z,9.70
2018-03-26T03:12:08.599Z,8.80
2018-03-26T03:13:08.605Z,10.20
2018-03-26T03:14:08.619Z,9.10
2018-03-26T03:15:08.624Z,9.30
2018-03-26T03:16:08.624Z,9.70
2018-03-26T03:17:08.638Z,10.70
2018-03-26T03:18:08.635Z,10.00
2018-03-26T03:19:08.648Z,10.30
2018-03-26T03:20:08.648Z,10.10
2018-03-26T03:21:08.658Z,9.40
2018-03-26T03:22:08.666Z,9.20
2018-03-26T03:23:08.668Z,8.90
2018-03-26T03:24:08.679Z,8.70
2018-03-26T03:25:08.688Z,8.80
2018-03-26T03:26:08.692Z,8.60
2018-03-26T03:27:08.692Z,8.80
2018-03-26T03:28:08.701Z,9.70
2018-03-26T03:29:08.702Z,8.80
2018-03-26T03:30:08.711Z,8.80
2018-03-26T03:31:08.717Z,10.10
2018-03-26T03:32:08.772Z,13.40
2018-03-26T03:33:08.726Z,16.90
2018-03-26T03:34:08.733Z,18.20
2018-03-26T03:35:08.740Z,18.20
2018-03-26T03:36:08.749Z,17.40
2018-03-26T03:37:08.750Z,17.30
2018-03-26T03:38:08.758Z,16.20
2018-03-26T03:39:08.765Z,13.80
2018-03-26T03:40:08.768Z,11.30
2018-03-26T03:41:08.777Z,11.30
2018-03-26T03:42:08.787Z,10.30
2018-03-26T03:43:08.793Z,12.10
2018-03-26T03:44:08.791Z,14.00
2018-03-26T03:45:08.798Z,13.60
2018-03-26T03:46:08.810Z,13.10
2018-03-26T03:47:08.816Z,11.70
2018-03-26T03:48:08.820Z,11.90
2018-03-26T03:49:08.827Z,12.90
2018-03-26T03:50:08.832Z,12.50
2018-03-26T03:51:08.831Z,11.80
2018-03-26T03:52:08.843Z,12.40
2018-03-26T03:53:08.849Z,11.60
2018-03-26T03:54:08.850Z,10.90
2018-03-26T03:55:08.863Z,10.90
2018-03-26T03:56:08.866Z,10.40
2018-03-26T03:57:08.872Z,10.20
2018-03-26T03:58:08.879Z,10.90
2018-03-26T03:59:08.879Z,11.00
2018-03-26T04:00:08.900Z,9.90
2018-03-26T04:01:08.897Z,11.10
2018-03-26T04:02:08.907Z,11.40
2018-03-26T04:03:08.902Z,12.10
2018-03-26T04:04:08.914Z,12.50
2018-03-26T04:05:08.920Z,13.20
2018-03-26T04:06:08.925Z,14.50
2018-03-26T04:07:08.932Z,14.70
2018-03-26T04:08:08.937Z,14.40
2018-03-26T04:09:08.935Z,14.60
2018-03-26T04:10:08.941Z,14.80
2018-03-26T04:11:08.949Z,13.30
2018-03-26T04:12:08.954Z,14.50
2018-03-26T04:13:08.966Z,13.60
2018-03-26T04:14:08.968Z,12.50
2018-03-26T04:15:08.980Z,13.30
2018-03-26T04:16:08.983Z,14.20
2018-03-26T04:17:08.984Z,17.60
2018-03-26T04:18:08.993Z,16.10
2018-03-26T04:19:09.001Z,15.50
2018-03-26T04:20:09.001Z,14.80
2018-03-26T04:21:09.013Z,14.10
2018-03-26T04:22:09.013Z,13.30
2018-03-26T04:23:09.029Z,15.10
2018-03-26T04:24:09.032Z,14.70
2018-03-26T04:25:09.035Z,14.50
2018-03-26T04:26:09.041Z,14.00
2018-03-26T04:27:09.049Z,15.50
2018-03-26T04:28:09.054Z,15.80
2018-03-26T04:29:09.060Z,16.70
2018-03-26T04:30:09.060Z,16.20
2018-03-26T04:31:09.073Z,16.70
2018-03-26T04:32:09.077Z,16.40
2018-03-26T04:33:09.082Z,17.80
2018-03-26T04:34:09.089Z,15.20
2018-03-26T04:35:09.098Z,14.20
2018-03-26T04:36:09.094Z,14.20
2018-03-26T04:37:09.103Z,14.30
2018-03-26T04:38:09.112Z,13.50
2018-03-26T04:39:09.118Z,14.50
2018-03-26T04:40:09.122Z,13.50
2018-03-26T04:41:09.130Z,13.50
2018-03-26T04:42:09.132Z,14.50
2018-03-26T04:43:09.135Z,14.10
2018-03-26T04:44:09.141Z,13.80
2018-03-26T04:45:09.151Z,13.20
2018-03-26T04:46:09.158Z,12.90
2018-03-26T04:47:09.165Z,13.30
2018-03-26T04:48:09.170Z,14.20
2018-03-26T04:49:09.176Z,12.80
2018-03-26T04:50:09.182Z,13.40
2018-03-26T04:51:09.183Z,12.90
2018-03-26T04:52:09.187Z,12.50
2018-03-26T04:53:09.200Z,12.00
2018-03-26T04:54:09.205Z,13.40
2018-03-26T04:55:09.204Z,12.50
2018-03-26T04:56:09.210Z,12.90
2018-03-26T04:57:09.221Z,13.90
2018-03-26T04:58:09.232Z,12.40
2018-03-26T04:59:09.234Z,11.60
2018-03-26T05:00:09.240Z,10.70
2018-03-26T05:01:09.246Z,12.00
2018-03-26T05:02:09.281Z,11.70
2018-03-26T05:03:09.255Z,11.10
2018-03-26T05:04:09.258Z,12.90
2018-03-26T05:05:09.269Z,11.20
2018-03-26T05:06:09.269Z,11.70
2018-03-26T05:07:09.283Z,11.80
2018-03-26T05:08:09.281Z,11.70
2018-03-26T05:09:09.294Z,11.60
2018-03-26T05:10:09.292Z,11.60
2018-03-26T05:11:09.302Z,11.80
2018-03-26T05:12:09.303Z,13.10
2018-03-26T05:13:09.309Z,11.90
2018-03-26T05:14:09.314Z,12.60
2018-03-26T05:15:09.324Z,12.10
2018-03-26T05:16:09.330Z,12.30
2018-03-26T05:17:09.328Z,12.40
2018-03-26T05:18:09.340Z,12.70
2018-03-26T05:19:09.346Z,13.50
2018-03-26T05:20:09.349Z,45.80
2018-03-26T05:21:09.355Z,23.40
2018-03-26T05:22:09.356Z,16.90
2018-03-26T05:23:09.366Z,16.20
2018-03-26T05:24:09.366Z,13.50
2018-03-26T05:25:09.377Z,13.30
2018-03-26T05:26:09.378Z,12.60
2018-03-26T05:27:09.397Z,12.30
2018-03-26T05:28:09.387Z,12.50
2018-03-26T05:29:09.399Z,12.30
2018-03-26T05:30:09.404Z,12.30
2018-03-26T05:31:09.418Z,12.50
2018-03-26T05:32:09.413Z,12.60
2018-03-26T05:33:09.421Z,12.50
2018-03-26T05:34:09.421Z,12.90
2018-03-26T05:35:09.427Z,13.10
2018-03-26T05:36:09.432Z,11.80
2018-03-26T05:37:09.447Z,12.90
2018-03-26T05:38:09.443Z,13.40
2018-03-26T05:39:09.449Z,13.30
2018-03-26T05:40:09.453Z,11.90
2018-03-26T05:41:09.459Z,12.70
2018-03-26T05:42:09.464Z,12.60
2018-03-26T05:43:09.470Z,13.20
2018-03-26T05:44:09.474Z,11.80
2018-03-26T05:45:09.480Z,12.80
2018-03-26T05:46:09.490Z,12.80
2018-03-26T05:47:09.492Z,12.50
2018-03-26T05:48:09.496Z,12.60
2018-03-26T05:49:09.507Z,12.70
2018-03-26T05:50:09.512Z,11.90
2018-03-26T05:51:09.518Z,12.00
2018-03-26T05:52:09.524Z,11.50
2018-03-26T05:53:09.528Z,12.00
2018-03-26T05:54:09.540Z,12.20
2018-03-26T05:55:09.533Z,12.10
2018-03-26T05:56:09.544Z,12.60
2018-03-26T05:57:09.550Z,11.60
2018-03-26T05:58:09.552Z,12.20
2018-03-26T05:59:09.562Z,12.30
2018-03-26T06:00:09.567Z,10.80
2018-03-26T06:01:09.572Z,10.20
2018-03-26T06:02:09.604Z,10.40
2018-03-26T06:03:09.585Z,11.20
2018-03-26T06:04:09.584Z,10.40
2018-03-26T06:05:09.591Z,10.60
2018-03-26T06:06:09.602Z,11.90
2018-03-26T06:07:09.602Z,10.80
2018-03-26T06:08:09.617Z,11.20
2018-03-26T06:09:09.619Z,10.40
2018-03-26T06:10:09.619Z,10.40
2018-03-26T06:11:09.625Z,10.60
2018-03-26T06:12:09.629Z,10.00
2018-03-26T06:13:09.643Z,12.50
2018-03-26T06:14:09.649Z,14.40
2018-03-26T06:15:09.653Z,15.70
2018-03-26T06:16:09.654Z,14.10
2018-03-26T06:17:09.662Z,11.70
2018-03-26T06:18:09.672Z,10.70
2018-03-26T06:19:09.672Z,9.40
2018-03-26T06:20:09.674Z,8.60
2018-03-26T06:21:09.687Z,11.70
2018-03-26T06:22:09.694Z,15.00
2018-03-26T06:23:09.692Z,17.30
2018-03-26T06:24:09.703Z,15.90
2018-03-26T06:25:09.704Z,15.30
2018-03-26T06:26:09.714Z,15.20
2018-03-26T06:27:09.720Z,14.40
2018-03-26T06:28:09.727Z,14.20
2018-03-26T06:29:09.731Z,12.60
2018-03-26T06:30:09.737Z,10.80
2018-03-26T06:31:09.740Z,10.30
2018-03-26T06:32:09.742Z,10.00
2018-03-26T06:33:09.755Z,9.30
2018-03-26T06:34:09.753Z,9.80
2018-03-26T06:35:09.765Z,9.60
2018-03-26T06:36:09.763Z,8.60
2018-03-26T06:37:09.768Z,9.50
2018-03-26T06:38:09.781Z,9.90
2018-03-26T06:39:09.786Z,9.70
2018-03-26T06:40:09.792Z,10.20
2018-03-26T06:41:09.791Z,9.70
2018-03-26T06:42:09.803Z,9.30
2018-03-26T06:43:09.810Z,9.30
2018-03-26T06:44:09.879Z,9.10
2018-03-26T06:45:09.817Z,9.60
2018-03-26T06:46:09.820Z,9.70
2018-03-26T06:47:09.826Z,8.80
2018-03-26T06:48:09.834Z,10.20
2018-03-26T06:49:09.838Z,9.60
2018-03-26T06:50:09.843Z,9.40
2018-03-26T06:51:09.862Z,9.40
2018-03-26T06:52:09.860Z,9.20
2018-03-26T06:53:09.860Z,9.00
2018-03-26T06:54:09.866Z,9.30
2018-03-26T06:55:09.884Z,9.80
2018-03-26T06:56:09.884Z,8.60
2018-03-26T06:57:09.890Z,10.00
2018-03-26T06:58:09.889Z,8.90
2018-03-26T06:59:09.894Z,10.30
2018-03-26T07:00:09.907Z,9.90
2018-03-26T07:01:09.904Z,9.50
2018-03-26T07:02:09.916Z,9.80
2018-03-26T07:03:09.918Z,9.20
2018-03-26T07:04:09.923Z,10.10
2018-03-26T07:05:09.931Z,8.40
2018-03-26T07:06:09.939Z,8.10
2018-03-26T07:07:09.940Z,8.30
2018-03-26T07:08:09.945Z,8.50
2018-03-26T07:09:09.959Z,8.50
2018-03-26T07:10:09.958Z,8.50
2018-03-26T07:11:09.964Z,8.30
2018-03-26T07:12:09.970Z,9.20
2018-03-26T07:13:09.984Z,8.50
2018-03-26T07:14:09.986Z,8.70
2018-03-26T07:15:09.987Z,8.70
2018-03-26T07:16:09.992Z,8.60
2018-03-26T07:17:09.999Z,8.80
2018-03-26T07:18:10.009Z,7.80
2018-03-26T07:19:10.019Z,8.30
2018-03-26T07:20:10.022Z,8.10
2018-03-26T07:21:10.022Z,8.00
2018-03-26T07:22:10.037Z,8.80
2018-03-26T07:23:10.036Z,8.70
2018-03-26T07:24:10.044Z,8.70
2018-03-26T07:25:10.053Z,8.60
2018-03-26T07:26:10.061Z,8.20
2018-03-26T07:27:10.059Z,7.70
2018-03-26T07:28:10.064Z,7.90
2018-03-26T07:29:10.070Z,8.30
2018-03-26T07:30:10.077Z,8.00
2018-03-26T07:31:10.089Z,9.00
2018-03-26T07:32:10.091Z,8.20
2018-03-26T07:33:10.098Z,8.20
2018-03-26T07:34:10.102Z,8.60
2018-03-26T07:35:10.108Z,8.20
2018-03-26T07:36:10.113Z,9.10
2018-03-26T07:37:10.119Z,10.90
2018-03-26T07:38:10.131Z,11.10
2018-03-26T07:39:10.136Z,9.70
2018-03-26T07:40:10.137Z,8.80
2018-03-26T07:41:10.189Z,7.60
2018-03-26T07:42:10.164Z,8.50
2018-03-26T07:43:10.163Z,8.90
2018-03-26T07:44:10.166Z,9.80
2018-03-26T07:45:10.169Z,9.30
2018-03-26T07:46:10.175Z,9.40
2018-03-26T07:47:10.186Z,8.40
2018-03-26T07:48:10.194Z,7.40
2018-03-26T07:49:10.194Z,8.00
2018-03-26T07:50:10.207Z,8.40
2018-03-26T07:51:10.214Z,9.00
2018-03-26T07:52:10.218Z,9.30
2018-03-26T07:53:10.222Z,11.00
2018-03-26T07:54:10.231Z,10.40
2018-03-26T07:55:10.240Z,11.00
2018-03-26T07:56:10.245Z,11.10
2018-03-26T07:57:10.253Z,11.00
2018-03-26T07:58:10.260Z,8.80
2018-03-26T07:59:10.265Z,9.20
2018-03-26T08:00:10.266Z,8.50
2018-03-26T08:01:10.279Z,7.50
2018-03-26T08:02:10.287Z,7.70
2018-03-26T08:03:10.294Z,7.00
2018-03-26T08:04:10.294Z,7.50
2018-03-26T08:05:10.304Z,7.50
2018-03-26T08:06:10.307Z,8.40
2018-03-26T08:07:10.314Z,9.20
2018-03-26T08:08:10.319Z,8.10
2018-03-26T08:09:10.328Z,9.00
2018-03-26T08:10:10.334Z,8.60
2018-03-26T08:11:10.346Z,8.20
2018-03-26T08:12:10.347Z,7.80
2018-03-26T08:13:10.361Z,9.20
2018-03-26T08:14:10.361Z,9.70
2018-03-26T08:15:10.371Z,9.20
2018-03-26T08:16:10.378Z,8.70
2018-03-26T08:17:10.534Z,8.40
2018-03-26T08:18:10.392Z,8.90
2018-03-26T08:19:10.395Z,8.70
2018-03-26T08:20:10.409Z,8.50
2018-03-26T08:21:10.414Z,8.80
2018-03-26T08:22:10.418Z,9.40
2018-03-26T08:23:10.423Z,9.20
2018-03-26T08:24:10.438Z,9.40
2018-03-26T08:25:10.436Z,8.60
2018-03-26T08:26:10.442Z,9.00
2018-03-26T08:27:10.450Z,9.60
2018-03-26T08:28:10.464Z,9.30
2018-03-26T08:29:10.462Z,9.40
2018-03-26T08:30:10.468Z,9.30
2018-03-26T08:31:10.485Z,9.40
2018-03-26T08:32:10.494Z,9.60
2018-03-26T08:33:10.496Z,9.50
2018-03-26T08:34:10.496Z,8.90
2018-03-26T08:35:10.509Z,9.20
2018-03-26T08:36:10.509Z,9.60
2018-03-26T08:37:10.516Z,9.00
2018-03-26T08:38:10.524Z,9.80
2018-03-26T08:39:10.536Z,9.10
2018-03-26T08:40:10.540Z,9.60
2018-03-26T08:41:10.548Z,9.40
2018-03-26T08:42:10.618Z,9.90
2018-03-26T08:43:10.564Z,10.90
2018-03-26T08:44:10.569Z,11.30
2018-03-26T08:45:10.571Z,10.40
2018-03-26T08:46:10.577Z,9.30
2018-03-26T08:47:10.589Z,9.60
2018-03-26T08:48:10.597Z,9.40
2018-03-26T08:49:10.603Z,9.30
2018-03-26T08:50:10.807Z,9.20
2018-03-26T08:51:10.617Z,10.10
2018-03-26T08:52:10.618Z,8.90
2018-03-26T08:53:10.629Z,9.80
2018-03-26T08:54:10.636Z,9.20
2018-03-26T08:55:10.639Z,9.90
2018-03-26T08:56:10.646Z,8.90
2018-03-26T08:57:10.658Z,9.60
2018-03-26T08:58:10.667Z,9.80
2018-03-26T08:59:10.667Z,9.90
2018-03-26T09:00:10.680Z,10.20
2018-03-26T09:01:10.682Z,11.10
2018-03-26T09:02:10.694Z,9.70
2018-03-26T09:03:10.697Z,9.20
2018-03-26T09:04:10.709Z,9.80
2018-03-26T09:05:10.716Z,9.70
2018-03-26T09:06:10.724Z,9.10
2018-03-26T09:07:10.731Z,9.80
2018-03-26T09:08:10.736Z,10.00
2018-03-26T09:09:10.740Z,9.60
2018-03-26T09:10:10.745Z,9.70
2018-03-26T09:11:10.760Z,9.90
2018-03-26T09:12:10.760Z,9.40
2018-03-26T09:13:10.772Z,9.70
2018-03-26T09:14:10.777Z,10.10
2018-03-26T09:15:10.787Z,9.80
2018-03-26T09:16:10.794Z,9.80
2018-03-26T09:17:10.803Z,9.80
2018-03-26T09:18:10.809Z,9.20
2018-03-26T09:19:10.818Z,9.90
2018-03-26T09:20:10.823Z,9.30
2018-03-26T09:21:10.824Z,10.50
2018-03-26T09:22:10.839Z,10.00
2018-03-26T09:23:10.839Z,10.00
2018-03-26T09:24:10.847Z,10.50
2018-03-26T09:25:10.861Z,10.50
2018-03-26T09:26:10.862Z,9.50
2018-03-26T09:27:10.870Z,9.60
2018-03-26T09:28:10.876Z,10.40
2018-03-26T09:29:10.888Z,9.20
2018-03-26T09:30:10.889Z,9.70
2018-03-26T09:31:10.898Z,10.00
2018-03-26T09:32:10.911Z,9.10
2018-03-26T09:33:10.911Z,9.70
2018-03-26T09:34:10.918Z,9.30
2018-03-26T09:35:10.931Z,8.90
2018-03-26T09:36:10.935Z,9.20
2018-03-26T09:37:10.942Z,9.30
2018-03-26T09:38:10.952Z,9.90
2018-03-26T09:39:10.962Z,10.30
2018-03-26T09:40:10.963Z,9.10
2018-03-26T09:41:10.975Z,8.80
2018-03-26T09:42:10.977Z,9.20
2018-03-26T09:43:10.990Z,8.40
2018-03-26T09:44:11.006Z,9.40
2018-03-26T09:45:10.999Z,9.50
2018-03-26T09:46:11.013Z,9.90
2018-03-26T09:47:11.016Z,9.20
2018-03-26T09:48:11.039Z,8.60
2018-03-26T09:49:11.036Z,9.10
2018-03-26T09:50:11.038Z,8.90
2018-03-26T09:51:11.052Z,10.00
2018-03-26T09:52:11.066Z,9.30
2018-03-26T09:53:11.063Z,9.80
2018-03-26T09:54:11.076Z,9.80
2018-03-26T09:55:11.080Z,9.00
2018-03-26T09:56:11.087Z,10.30
2018-03-26T09:57:11.101Z,8.80
2018-03-26T09:58:11.105Z,8.80
2018-03-26T09:59:11.124Z,8.40
2018-03-26T10:00:11.128Z,9.60
2018-03-26T10:01:11.137Z,8.80
2018-03-26T10:02:11.145Z,8.70
2018-03-26T10:03:11.148Z,8.70
2018-03-26T10:04:11.163Z,8.80
2018-03-26T10:05:11.176Z,8.50
2018-03-26T10:06:11.181Z,8.50
2018-03-26T10:07:11.185Z,9.50
2018-03-26T10:08:11.199Z,9.20
2018-03-26T10:09:11.204Z,9.00
2018-03-26T10:10:11.217Z,8.90
2018-03-26T10:11:11.224Z,9.30
2018-03-26T10:12:11.233Z,9.60
2018-03-26T10:13:11.248Z,8.80
2018-03-26T10:14:11.293Z,8.90
2018-03-26T10:15:11.266Z,10.20
2018-03-26T10:16:11.271Z,8.60
2018-03-26T10:17:11.285Z,9.10
2018-03-26T10:18:11.299Z,9.30
2018-03-26T10:19:11.303Z,9.00
2018-03-26T10:20:11.366Z,9.00
2018-03-26T10:21:11.328Z,9.00
2018-03-26T10:22:11.334Z,9.40
2018-03-26T10:23:11.351Z,8.00
2018-03-26T10:24:11.365Z,9.00
2018-03-26T10:25:11.363Z,9.20
2018-03-26T10:26:11.374Z,8.40
2018-03-26T10:27:11.390Z,7.60
2018-03-26T10:28:11.394Z,8.10
2018-03-26T10:29:11.410Z,9.00
2018-03-26T10:30:11.415Z,8.10
2018-03-26T10:31:11.438Z,8.10
2018-03-26T10:32:11.435Z,8.40
2018-03-26T10:33:11.451Z,8.90
2018-03-26T10:34:11.456Z,8.60
2018-03-26T10:35:11.472Z,8.50
2018-03-26T10:36:11.481Z,8.70
2018-03-26T10:37:11.493Z,8.90
2018-03-26T10:38:11.503Z,8.70
2018-03-26T10:39:11.510Z,8.90
2018-03-26T10:40:11.517Z,9.00
2018-03-26T10:41:11.535Z,8.20
2018-03-26T10:42:11.540Z,8.40
2018-03-26T10:43:11.550Z,7.60
2018-03-26T10:44:11.560Z,8.20
2018-03-26T10:45:11.576Z,8.40
2018-03-26T10:46:11.582Z,8.50
2018-03-26T10:47:11.593Z,7.70
2018-03-26T10:48:11.603Z,7.60
2018-03-26T10:49:11.613Z,7.90
2018-03-26T10:50:11.629Z,7.70
2018-03-26T10:51:11.639Z,7.80
2018-03-26T10:52:11.649Z,8.40
2018-03-26T10:53:11.654Z,7.80
2018-03-26T10:54:11.667Z,7.90
2018-03-26T10:55:11.681Z,8.10
2018-03-26T10:56:11.690Z,7.80
2018-03-26T10:57:11.702Z,8.40
2018-03-26T10:58:11.711Z,7.80
2018-03-26T10:59:11.729Z,7.90
2018-03-26T11:00:11.729Z,8.30
2018-03-26T11:01:11.747Z,8.00
2018-03-26T11:02:11.759Z,7.70
2018-03-26T11:03:11.759Z,8.30
2018-03-26T11:04:11.769Z,7.90
2018-03-26T11:05:11.786Z,7.90
2018-03-26T11:06:11.791Z,8.30
2018-03-26T11:07:11.808Z,6.90
2018-03-26T11:08:11.812Z,6.80
2018-03-26T11:09:11.823Z,7.60
2018-03-26T11:10:11.836Z,7.30
2018-03-26T11:11:11.851Z,7.30
2018-03-26T11:12:11.864Z,7.10
2018-03-26T11:13:11.877Z,7.60
2018-03-26T11:14:11.880Z,7.10
2018-03-26T11:15:11.893Z,6.80
2018-03-26T11:16:11.907Z,6.90
2018-03-26T11:17:11.925Z,6.60
2018-03-26T11:18:11.929Z,7.90
2018-03-26T11:19:11.937Z,7.10
2018-03-26T11:20:11.951Z,7.60
2018-03-26T11:21:11.958Z,7.60
2018-03-26T11:22:11.976Z,6.60
2018-03-26T11:23:11.987Z,7.20
2018-03-26T11:24:11.998Z,7.10
2018-03-26T11:25:12.000Z,6.50
2018-03-26T11:26:12.022Z,6.20
2018-03-26T11:27:12.032Z,6.80
2018-03-26T11:28:12.035Z,6.50
2018-03-26T11:29:12.052Z,6.30
2018-03-26T11:30:12.058Z,6.40
2018-03-26T11:31:12.070Z,6.00
2018-03-26T11:32:12.086Z,6.20
2018-03-26T11:33:12.097Z,6.10
2018-03-26T11:34:12.104Z,6.60
2018-03-26T11:35:12.114Z,6.70
2018-03-26T11:36:12.131Z,6.40
2018-03-26T11:37:12.141Z,6.60
2018-03-26T11:38:12.148Z,6.90
2018-03-26T11:39:12.159Z,6.30
2018-03-26T11:40:12.175Z,6.30
2018-03-26T11:41:12.186Z,6.40
2018-03-26T11:42:12.199Z,7.30
2018-03-26T11:43:12.208Z,6.60
2018-03-26T11:44:12.221Z,6.60
2018-03-26T11:45:12.231Z,7.10
2018-03-26T11:46:12.242Z,6.40
2018-03-26T11:47:12.254Z,5.60
2018-03-26T11:48:12.264Z,6.50
2018-03-26T11:49:12.277Z,6.60
2018-03-26T11:50:12.282Z,6.90
2018-03-26T11:51:12.301Z,6.00
2018-03-26T11:52:12.314Z,7.50
2018-03-26T11:53:12.322Z,7.00
2018-03-26T11:54:12.335Z,6.70
2018-03-26T11:55:12.394Z,7.30
2018-03-26T11:56:12.356Z,7.10
2018-03-26T11:57:12.368Z,6.00
2018-03-26T11:58:12.380Z,6.30
2018-03-26T11:59:12.387Z,7.10
2018-03-26T12:00:12.396Z,7.20
2018-03-26T12:01:12.408Z,6.70
2018-03-26T12:02:12.488Z,6.80
2018-03-26T12:03:12.438Z,6.40
2018-03-26T12:04:12.448Z,6.70
2018-03-26T12:05:12.455Z,5.70
2018-03-26T12:06:12.475Z,5.60
2018-03-26T12:07:12.479Z,6.20
2018-03-26T12:08:12.495Z,6.10
2018-03-26T12:09:12.501Z,6.20
2018-03-26T12:10:12.517Z,6.50
2018-03-26T12:11:12.525Z,6.60
2018-03-26T12:12:12.546Z,6.80
2018-03-26T12:13:12.552Z,6.40
2018-03-26T12:14:12.566Z,6.50
2018-03-26T12:15:12.579Z,6.60
2018-03-26T12:16:12.591Z,7.10
2018-03-26T12:17:12.598Z,5.70
2018-03-26T12:18:12.615Z,6.80
2018-03-26T12:19:12.627Z,6.30
2018-03-26T12:20:12.640Z,6.90
2018-03-26T12:21:12.644Z,6.80
2018-03-26T12:22:12.661Z,6.60
2018-03-26T12:23:12.674Z,6.60
2018-03-26T12:24:12.683Z,6.10
2018-03-26T12:25:12.695Z,5.90
2018-03-26T12:26:12.700Z,6.90
2018-03-26T12:27:12.713Z,6.20
2018-03-26T12:28:12.728Z,6.80
2018-03-26T12:29:12.740Z,6.30
2018-03-26T12:30:12.751Z,6.20
2018-03-26T12:31:12.764Z,6.40
2018-03-26T12:32:12.767Z,6.70
2018-03-26T12:33:12.783Z,6.50
2018-03-26T12:34:12.789Z,6.60
2018-03-26T12:35:12.801Z,6.50
2018-03-26T12:36:12.812Z,6.70
2018-03-26T12:37:12.825Z,6.40
2018-03-26T12:38:12.835Z,6.60
2018-03-26T12:39:12.846Z,7.00
2018-03-26T12:40:12.849Z,7.40
2018-03-26T12:41:12.859Z,7.50
2018-03-26T12:42:12.872Z,7.70
2018-03-26T12:43:12.884Z,7.40
2018-03-26T12:44:12.898Z,7.30
2018-03-26T12:45:12.897Z,6.70
2018-03-26T12:46:12.913Z,7.10
2018-03-26T12:47:12.915Z,6.80
2018-03-26T12:48:12.924Z,7.00
2018-03-26T12:49:12.939Z,6.60
2018-03-26T12:50:12.949Z,7.50
2018-03-26T12:51:12.958Z,7.30
2018-03-26T12:52:12.974Z,6.50
2018-03-26T12:53:12.971Z,7.20
2018-03-26T12:54:12.983Z,7.20
2018-03-26T12:55:12.997Z,6.70
2018-03-26T12:56:13.005Z,6.60
2018-03-26T12:57:13.008Z,6.40
2018-03-26T12:58:13.022Z,7.10
2018-03-26T12:59:13.033Z,6.90
2018-03-26T13:00:13.042Z,6.70
2018-03-26T13:01:13.050Z,6.80
2018-03-26T13:02:13.058Z,6.90
2018-03-26T13:03:13.066Z,6.30
2018-03-26T13:04:13.076Z,7.20
2018-03-26T13:05:13.086Z,6.70
2018-03-26T13:06:13.096Z,6.50
2018-03-26T13:07:13.105Z,6.30
2018-03-26T13:08:13.124Z,6.60
2018-03-26T13:09:13.122Z,7.10
2018-03-26T13:10:13.136Z,7.20
2018-03-26T13:11:13.134Z,7.30